Time;durP1;ratioP1;P1;durP2;ratioP2;P2;SDS_P1;SDS_P2;PMS_P1;PMS_P2;Temp;Humidity;BMP_temperature;BMP_pressure;BME280_temperature;BME280_humidity;BME280_pressure;Samples;Min_cycle;Max_cycle;Signal;HPM_P1;HPM_P2
2022/09/01 00:02:07;;;;;;;8.77;2.70;;;;;;;16.58;53.74;101884.41;5046843;28;20021;-61
2022/09/01 00:04:37;;;;;;;12.98;2.80;;;;;;;16.59;54.12;101886.19;5041621;28;20026;-62
2022/09/01 00:07:07;;;;;;;11.63;2.88;;;;;;;16.52;54.50;101879.09;5039374;28;20022;-62
2022/09/01 00:09:33;;;;;;;8.00;2.78;;;;;;;16.57;54.54;101882.63;5039391;28;20029;-60
2022/09/01 00:12:00;;;;;;;8.32;2.80;;;;;;;16.53;55.04;101886.22;5037489;28;20025;-61
2022/09/01 00:14:28;;;;;;;10.77;2.80;;;;;;;16.49;56.02;101884.47;5045551;28;20029;-63
2022/09/01 00:16:54;;;;;;;10.00;2.90;;;;;;;16.46;56.04;101873.81;5043389;28;20041;-60
2022/09/01 00:19:20;;;;;;;10.82;2.83;;;;;;;16.37;57.37;101875.59;5045291;28;20376;-61
2022/09/01 00:21:46;;;;;;;10.18;2.80;;;;;;;16.33;57.63;101876.50;5044418;28;20021;-63
2022/09/01 00:24:14;;;;;;;8.57;2.67;;;;;;;16.32;57.48;101871.16;5044050;28;20476;-63
2022/09/01 00:26:40;;;;;;;8.88;2.88;;;;;;;16.28;57.91;101872.97;5045451;28;20048;-62
2022/09/01 00:29:06;;;;;;;12.18;3.00;;;;;;;16.25;58.75;101872.06;5042731;28;20100;-60
2022/09/01 00:31:33;;;;;;;9.82;2.80;;;;;;;16.19;59.40;101876.56;5046308;28;20396;-63
2022/09/01 00:33:58;;;;;;;11.52;2.80;;;;;;;16.15;60.07;101884.53;5042544;28;20022;-60
2022/09/01 00:36:24;;;;;;;11.07;2.88;;;;;;;16.08;60.90;101875.69;5045096;28;20132;-61
2022/09/01 00:38:50;;;;;;;7.90;2.80;;;;;;;16.04;61.39;101874.78;5043571;28;20395;-70
2022/09/01 00:41:19;;;;;;;12.02;3.08;;;;;;;15.93;62.31;101873.94;5043886;28;20030;-71
2022/09/01 00:43:47;;;;;;;10.88;2.90;;;;;;;15.97;62.80;101870.34;5044242;28;20036;-72
2022/09/01 00:46:21;;;;;;;9.63;2.92;;;;;;;15.91;62.94;101878.38;5043826;28;20026;-72
2022/09/01 00:48:52;;;;;;;10.32;3.15;;;;;;;15.86;64.62;101874.84;5043780;28;20029;-71
2022/09/01 00:51:17;;;;;;;8.85;3.10;;;;;;;15.92;64.14;101874.81;5043831;28;20473;-71
2022/09/01 00:53:44;;;;;;;11.05;2.85;;;;;;;15.93;64.34;101871.28;5043985;28;20103;-70
2022/09/01 00:56:11;;;;;;;7.45;2.95;;;;;;;15.93;64.76;101887.28;5042791;28;20044;-71
2022/09/01 00:58:38;;;;;;;8.52;3.00;;;;;;;15.85;65.49;101875.72;5045119;28;20027;-71
2022/09/01 01:01:06;;;;;;;8.77;3.10;;;;;;;15.77;66.01;101878.38;5041755;28;20025;-72
2022/09/01 01:03:31;;;;;;;11.63;3.15;;;;;;;15.75;66.37;101871.25;5038192;28;20036;-72
2022/09/01 01:06:02;;;;;;;10.32;3.13;;;;;;;15.61;66.96;101866.81;5045079;28;20029;-71
2022/09/01 01:08:33;;;;;;;10.20;3.20;;;;;;;15.57;67.54;101875.72;5041860;28;20469;-72
2022/09/01 01:11:02;;;;;;;12.70;3.20;;;;;;;15.51;68.22;101870.38;5045254;28;20029;-69
2022/09/01 01:13:30;;;;;;;13.38;3.20;;;;;;;15.42;68.98;101871.28;5041896;28;20033;-69
2022/09/01 01:15:58;;;;;;;9.93;3.17;;;;;;;15.40;69.40;101866.81;5044496;28;20365;-71
2022/09/01 01:18:24;;;;;;;9.65;3.20;;;;;;;15.31;70.22;101863.25;5042117;28;20052;-60
2022/09/01 01:23:56;;;;;;;11.65;3.08;;;;;;;15.19;71.23;101867.66;5041262;28;20028;-61
2022/09/01 01:26:22;;;;;;;11.80;3.40;;;;;;;15.09;72.63;101869.47;5042489;28;20384;-60
2022/09/01 01:28:47;;;;;;;10.27;3.45;;;;;;;15.06;73.02;101858.81;5043544;28;20029;-59
2022/09/01 01:31:17;;;;;;;12.60;3.33;;;;;;;15.02;73.74;101862.34;5043779;28;20037;-61
2022/09/01 01:33:51;;;;;;;9.77;3.35;;;;;;;14.95;74.12;101870.28;5042528;28;20052;-63
2022/09/01 01:36:29;;;;;;;10.80;3.60;;;;;;;14.86;75.09;101867.63;5040711;28;20072;-65
2022/09/01 01:39:01;;;;;;;10.23;3.40;;;;;;;14.80;75.87;101867.59;5041847;28;20029;-63
2022/09/01 01:41:28;;;;;;;11.57;3.60;;;;;;;14.81;76.41;101867.59;5044616;28;20025;-61
2022/09/01 01:43:58;;;;;;;11.63;3.55;;;;;;;14.76;76.79;101869.34;5041823;28;20142;-62
2022/09/01 01:46:24;;;;;;;12.55;3.70;;;;;;;14.71;77.25;101872.88;5043971;28;20037;-60
2022/09/01 01:48:51;;;;;;;11.55;3.60;;;;;;;14.65;77.82;101868.44;5042208;28;20021;-61
2022/09/01 01:51:20;;;;;;;13.90;3.50;;;;;;;14.56;78.80;101871.94;5042867;28;20028;-61
2022/09/01 01:53:46;;;;;;;12.50;3.60;;;;;;;14.50;80.04;101876.31;5042950;28;20073;-62
2022/09/01 01:56:11;;;;;;;11.48;3.60;;;;;;;14.46;80.33;101872.78;5042054;28;20040;-63
2022/09/01 01:58:38;;;;;;;10.85;3.60;;;;;;;14.45;80.67;101879.84;5044012;28;20373;-67
2022/09/01 02:01:05;;;;;;;10.00;3.75;;;;;;;14.41;81.47;101875.38;5041361;28;20104;-67
2022/09/01 02:03:37;;;;;;;12.55;4.03;;;;;;;14.41;81.62;101882.50;5036977;28;20022;-68
2022/09/01 02:06:06;;;;;;;13.05;3.85;;;;;;;14.38;81.93;101878.03;5037201;28;20029;-68
2022/09/01 02:08:34;;;;;;;14.77;3.90;;;;;;;14.39;82.02;101877.16;5037230;28;20029;-68
2022/09/01 02:11:01;;;;;;;11.63;3.88;;;;;;;14.45;82.09;101877.19;5036822;28;20025;-69
2022/09/01 02:13:29;;;;;;;11.38;3.60;;;;;;;14.45;82.17;101874.53;5043736;28;20028;-69
2022/09/01 02:15:55;;;;;;;12.32;3.83;;;;;;;14.48;82.12;101873.66;5041660;28;20029;-68
2022/09/01 02:18:23;;;;;;;10.38;3.90;;;;;;;14.47;82.27;101877.19;5042753;28;20072;-68
2022/09/01 02:20:50;;;;;;;12.95;3.90;;;;;;;14.43;82.32;101875.38;5042236;28;20440;-69
2022/09/01 02:23:22;;;;;;;13.48;3.63;;;;;;;14.42;82.74;101878.97;5042622;28;20025;-68
2022/09/01 02:25:49;;;;;;;12.75;4.00;;;;;;;14.41;83.22;101879.81;5042213;28;20033;-69
2022/09/01 02:28:17;;;;;;;10.85;4.07;;;;;;;14.38;82.93;101878.03;5041849;28;20036;-67
2022/09/01 02:30:53;;;;;;;13.85;3.90;;;;;;;14.40;83.12;101878.03;5043052;28;20029;-68
2022/09/01 02:33:20;;;;;;;11.93;3.90;;;;;;;14.40;84.28;101870.06;5042789;28;20029;-66
2022/09/01 02:35:53;;;;;;;12.20;3.97;;;;;;;14.34;84.66;101881.56;5045248;28;20369;-68
2022/09/01 02:38:19;;;;;;;12.88;4.40;;;;;;;14.35;84.14;101878.03;5046339;28;20068;-68
2022/09/01 02:40:46;;;;;;;13.35;4.20;;;;;;;14.29;84.49;101876.22;5046552;28;20024;-68
2022/09/01 02:43:18;;;;;;;11.48;3.92;;;;;;;14.22;84.58;101874.41;5045459;28;20539;-67
2022/09/01 02:45:45;;;;;;;14.43;4.30;;;;;;;14.18;84.82;101875.25;5046517;28;20028;-68
2022/09/01 02:48:10;;;;;;;14.15;4.30;;;;;;;14.12;85.31;101867.25;5045183;28;20026;-61
2022/09/01 02:50:37;;;;;;;13.93;4.20;;;;;;;14.04;85.87;101874.31;5047806;28;20472;-60
2022/09/01 02:53:08;;;;;;;12.15;4.30;;;;;;;13.98;86.71;101860.97;5044066;28;20049;-60
2022/09/01 02:55:38;;;;;;;12.70;4.10;;;;;;;13.95;86.98;101862.75;5040528;28;20075;-60
2022/09/01 02:58:03;;;;;;;12.65;4.07;;;;;;;13.92;87.58;101867.13;5041023;28;20129;-62
2022/09/01 03:00:30;;;;;;;13.88;4.20;;;;;;;13.88;87.82;101854.72;5047395;28;20017;-62
2022/09/01 03:02:58;;;;;;;12.65;4.15;;;;;;;13.82;88.66;101854.66;5045024;28;20021;-61
2022/09/01 03:05:25;;;;;;;12.90;4.18;;;;;;;13.77;89.64;101858.19;5046878;28;20480;-62
2022/09/01 03:08:03;;;;;;;12.32;4.10;;;;;;;13.77;89.01;101857.28;5045477;28;20107;-64
2022/09/01 03:10:32;;;;;;;13.35;4.30;;;;;;;13.69;90.32;101854.59;5047432;28;20078;-65
2022/09/01 03:13:02;;;;;;;10.57;4.10;;;;;;;13.64;91.50;101852.75;5044228;28;20053;-61
2022/09/01 03:15:28;;;;;;;16.35;4.60;;;;;;;13.64;91.40;101858.06;5047361;28;20123;-64
2022/09/01 03:17:56;;;;;;;14.23;4.40;;;;;;;13.63;91.67;101859.84;5044962;28;20028;-63
2022/09/01 03:20:22;;;;;;;14.18;4.50;;;;;;;13.58;91.93;101851.81;5045905;28;20025;-62
2022/09/01 03:22:50;;;;;;;15.88;4.68;;;;;;;13.55;91.97;101851.81;5045888;28;20036;-64
2022/09/01 03:25:17;;;;;;;13.57;4.40;;;;;;;13.51;92.69;101855.31;5045265;28;20049;-66
2022/09/01 03:27:43;;;;;;;14.05;5.00;;;;;;;13.50;92.93;101860.59;5046198;28;20384;-63
2022/09/01 03:30:09;;;;;;;13.27;4.50;;;;;;;13.43;93.56;101854.38;5044323;28;20025;-64
2022/09/01 03:32:35;;;;;;;14.77;4.45;;;;;;;13.39;94.07;101856.09;5046970;28;20032;-60
2022/09/01 03:35:00;;;;;;;13.15;4.50;;;;;;;13.38;94.36;101850.78;5039441;28;20033;-63
2022/09/01 03:37:26;;;;;;;15.77;4.70;;;;;;;13.36;94.33;101857.84;5046376;28;20029;-65
2022/09/01 03:39:51;;;;;;;14.27;4.75;;;;;;;13.27;94.71;101855.97;5044627;28;20053;-63
2022/09/01 03:42:18;;;;;;;14.20;4.55;;;;;;;13.25;94.98;101853.31;5045040;28;20036;-67
2022/09/01 03:44:44;;;;;;;15.45;4.78;;;;;;;13.20;95.80;101855.00;5045781;28;20040;-63
2022/09/01 03:47:09;;;;;;;13.88;4.78;;;;;;;13.19;96.35;101852.34;5043468;28;20025;-64
2022/09/01 03:49:38;;;;;;;13.60;4.70;;;;;;;13.19;96.09;101855.91;5047012;28;20040;-65
2022/09/01 03:52:07;;;;;;;13.93;4.47;;;;;;;13.16;96.74;101853.19;5039398;28;20022;-62
2022/09/01 03:54:33;;;;;;;16.00;4.65;;;;;;;13.14;97.27;101856.72;5039226;28;20057;-66
2022/09/01 03:56:59;;;;;;;14.27;4.82;;;;;;;13.12;97.81;101850.50;5046168;28;20109;-68
2022/09/01 03:59:25;;;;;;;12.80;4.65;;;;;;;13.11;97.85;101856.72;5044021;28;20025;-67
2022/09/01 04:01:51;;;;;;;14.23;4.70;;;;;;;13.05;99.14;101854.88;5043787;28;20369;-68
2022/09/01 04:04:16;;;;;;;14.73;4.90;;;;;;;13.06;98.59;101851.31;5044804;28;20021;-65
2022/09/01 04:06:45;;;;;;;14.40;5.13;;;;;;;13.01;98.88;101848.63;5043856;28;20030;-66
2022/09/01 04:09:10;;;;;;;15.43;4.97;;;;;;;13.03;98.89;101856.59;5045641;28;20063;-67
2022/09/01 04:11:38;;;;;;;13.82;4.80;;;;;;;13.08;99.26;101855.78;5042858;28;20068;-68
2022/09/01 04:14:04;;;;;;;16.58;4.95;;;;;;;13.11;100.00;101848.75;5046363;28;20021;-67
2022/09/01 04:19:19;;;;;;;13.88;4.80;;;;;;;13.29;98.71;101848.88;5042099;28;20091;-63
2022/09/01 04:21:49;;;;;;;17.38;5.13;;;;;;;13.33;98.61;101853.34;5044869;28;20021;-62
2022/09/01 04:24:15;;;;;;;16.05;4.95;;;;;;;13.40;97.97;101851.69;5044196;28;20045;-60
2022/09/01 04:26:41;;;;;;;13.93;4.53;;;;;;;13.42;98.00;101852.59;5045394;28;20017;-60
2022/09/01 04:29:07;;;;;;;17.52;4.80;;;;;;;13.46;97.35;101851.75;5041198;28;20044;-64
2022/09/01 04:31:36;;;;;;;16.60;4.90;;;;;;;13.43;97.17;101859.69;5046047;28;20150;-62
2022/09/01 04:34:02;;;;;;;15.57;4.50;;;;;;;13.40;97.16;101846.38;5038205;28;20030;-70
2022/09/01 04:36:32;;;;;;;12.07;4.50;;;;;;;13.38;96.91;101859.66;5045221;28;20101;-68
2022/09/01 04:39:07;;;;;;;13.20;4.57;;;;;;;13.32;96.72;101856.88;5041622;28;20033;-70
2022/09/01 04:41:35;;;;;;;14.77;4.65;;;;;;;13.27;97.09;101861.28;5038784;28;20082;-71
2022/09/01 04:44:03;;;;;;;16.80;5.22;;;;;;;13.22;96.97;101855.94;5045461;28;20025;-70
2022/09/01 04:46:31;;;;;;;18.10;4.65;;;;;;;13.13;97.98;101857.59;5042444;28;20029;-69
2022/09/01 04:48:58;;;;;;;16.48;5.18;;;;;;;13.04;98.08;101861.06;5044042;28;20123;-68
2022/09/01 04:51:26;;;;;;;15.65;5.05;;;;;;;13.01;98.21;101861.91;5043388;28;20445;-69
2022/09/01 04:53:54;;;;;;;15.60;4.85;;;;;;;12.93;98.59;101855.66;5043871;28;20037;-69
2022/09/01 04:56:21;;;;;;;18.00;5.03;;;;;;;12.89;100.00;101859.13;5043724;28;20029;-69
2022/09/01 04:58:48;;;;;;;20.95;8.73;;;;;;;12.83;99.45;101859.94;5042983;28;20376;-71
2022/09/01 05:01:23;;;;;;;16.42;5.60;;;;;;;12.78;99.27;101866.06;5044385;28;20025;-69
2022/09/01 05:03:57;;;;;;;15.73;4.82;;;;;;;12.75;99.75;101869.56;5043715;28;20028;-70
2022/09/01 05:06:23;;;;;;;16.00;4.68;;;;;;;12.73;100.00;101860.72;5041879;28;20033;-71
2022/09/01 05:08:50;;;;;;;17.83;5.25;;;;;;;12.70;99.89;101864.22;5043749;28;20105;-69
2022/09/01 05:11:16;;;;;;;16.95;5.20;;;;;;;12.69;100.00;101866.84;5043931;28;20074;-70
2022/09/01 05:13:47;;;;;;;15.93;4.85;;;;;;;12.67;100.00;101861.53;5042776;28;20021;-70
2022/09/01 05:16:15;;;;;;;15.95;5.40;;;;;;;12.67;99.84;101858.88;5044289;28;20125;-68
2022/09/01 05:18:46;;;;;;;14.40;5.13;;;;;;;12.72;100.00;101866.88;5042224;28;20025;-70
2022/09/01 05:21:15;;;;;;;16.38;5.07;;;;;;;12.69;100.00;101870.38;5044570;28;20044;-71
2022/09/01 05:23:42;;;;;;;17.23;5.28;;;;;;;12.78;99.96;101859.00;5040978;28;20542;-70
2022/09/01 05:26:19;;;;;;;16.55;5.28;;;;;;;12.78;99.99;101861.66;5044806;28;20064;-68
2022/09/01 05:28:47;;;;;;;16.85;5.20;;;;;;;12.78;99.49;101866.06;5042510;28;20056;-67
2022/09/01 05:31:13;;;;;;;17.75;5.38;;;;;;;12.80;100.00;101870.53;5044433;28;20028;-67
2022/09/01 05:33:44;;;;;;;17.08;5.45;;;;;;;12.88;99.74;101874.13;5041432;28;20380;-68
2022/09/01 05:36:11;;;;;;;18.50;5.30;;;;;;;12.89;99.32;101870.63;5044421;28;20066;-68
2022/09/01 05:38:41;;;;;;;16.98;5.30;;;;;;;12.95;99.15;101866.28;5039977;28;20477;-68
2022/09/01 05:41:08;;;;;;;16.77;5.32;;;;;;;13.00;99.16;101867.19;5045044;28;20029;-68
2022/09/01 05:43:35;;;;;;;18.50;5.60;;;;;;;13.11;99.03;101865.53;5037133;28;20254;-68
2022/09/01 05:46:06;;;;;;;17.42;5.57;;;;;;;13.18;98.35;101870.03;5044613;28;20091;-68
2022/09/01 05:48:38;;;;;;;17.30;5.63;;;;;;;13.22;97.33;101874.50;5041175;28;20035;-68
2022/09/01 05:51:05;;;;;;;19.95;5.97;;;;;;;13.27;96.86;101871.03;5037444;28;20025;-68
2022/09/01 05:53:32;;;;;;;17.35;5.97;;;;;;;13.30;96.82;101871.03;5043910;28;20037;-67
2022/09/01 05:56:05;;;;;;;17.67;5.47;;;;;;;13.31;96.84;101875.47;5030507;28;20036;-59
2022/09/01 05:58:31;;;;;;;;;;;;;;;13.37;94.85;101872.91;5035141;28;20075;-59
2022/09/01 06:00:57;;;;;;;16.10;5.60;;;;;;;13.38;95.95;101874.69;5031619;28;19944;-59
2022/09/01 06:03:25;;;;;;;16.10;5.35;;;;;;;13.40;95.19;101872.94;5034856;28;20025;-58
2022/09/01 06:05:54;;;;;;;16.77;5.78;;;;;;;13.43;94.90;101887.13;5033534;28;20365;-59
2022/09/01 06:08:22;;;;;;;15.23;5.50;;;;;;;13.49;95.44;101875.66;5031653;28;20113;-58
2022/09/01 06:10:49;;;;;;;17.25;5.50;;;;;;;13.50;94.50;101874.81;5030251;28;20029;-59
2022/09/01 06:13:15;;;;;;;16.92;5.60;;;;;;;13.55;93.69;101880.16;5034989;28;20021;-59
2022/09/01 06:15:43;;;;;;;17.08;5.68;;;;;;;13.60;93.54;101881.97;5031624;28;20033;-59
2022/09/01 06:18:10;;;;;;;17.70;5.72;;;;;;;13.67;93.12;101882.88;5031410;28;20483;-58
2022/09/01 06:20:42;;;;;;;17.92;5.40;;;;;;;13.68;92.15;101883.78;5033703;28;20120;-59
2022/09/01 06:23:08;;;;;;;16.83;5.63;;;;;;;13.76;93.13;101884.72;5032215;28;20021;-59
2022/09/01 06:25:37;;;;;;;18.95;5.47;;;;;;;13.83;92.82;101889.22;5032353;28;20083;-58
2022/09/01 06:28:03;;;;;;;17.40;5.50;;;;;;;13.85;93.74;101884.81;5031397;28;20033;-59
2022/09/01 06:30:29;;;;;;;18.75;5.25;;;;;;;13.96;91.91;101882.22;5029038;28;20028;-59
2022/09/01 06:32:55;;;;;;;18.63;5.18;;;;;;;14.02;91.31;101881.38;5031926;28;20029;-59
2022/09/01 06:35:28;;;;;;;15.88;5.00;;;;;;;14.06;90.16;101889.38;5032833;28;20405;-59
2022/09/01 06:37:55;;;;;;;17.15;4.88;;;;;;;14.15;89.93;101885.00;5031776;28;20587;-59
2022/09/01 06:40:24;;;;;;;16.40;4.82;;;;;;;14.23;89.68;101884.16;5031347;28;20108;-59
2022/09/01 06:42:51;;;;;;;16.05;4.68;;;;;;;14.29;88.75;101891.28;5031592;28;20033;-60
2022/09/01 06:45:22;;;;;;;17.70;4.80;;;;;;;14.37;88.13;101886.00;5030469;28;20080;-59
2022/09/01 06:47:51;;;;;;;16.77;4.68;;;;;;;14.47;87.26;101882.50;5034063;28;20091;-59
2022/09/01 06:50:20;;;;;;;13.32;4.72;;;;;;;14.50;88.32;101886.97;5035326;28;20021;-60
2022/09/01 06:52:48;;;;;;;14.18;4.95;;;;;;;14.53;87.97;101892.28;5031593;28;20109;-60
2022/09/01 06:55:15;;;;;;;15.60;4.97;;;;;;;14.64;86.91;101888.81;5031383;28;20045;-60
2022/09/01 06:57:44;;;;;;;14.70;4.93;;;;;;;14.76;86.34;101897.75;5032012;28;20026;-59
2022/09/01 07:00:19;;;;;;;16.02;4.93;;;;;;;14.85;84.86;101888.91;5030006;28;20051;-60
2022/09/01 07:02:46;;;;;;;18.08;5.05;;;;;;;14.86;84.35;101896.91;5033887;28;20029;-60
2022/09/01 07:05:18;;;;;;;17.65;5.03;;;;;;;14.91;84.51;101902.22;5029644;28;20038;-60
2022/09/01 07:07:54;;;;;;;20.77;5.10;;;;;;;14.97;84.14;101905.81;5030983;28;20040;-59
2022/09/01 07:10:21;;;;;;;17.35;5.07;;;;;;;15.08;84.24;101903.16;5030042;28;20022;-61
2022/09/01 07:12:51;;;;;;;16.45;5.28;;;;;;;15.20;83.77;101907.63;5030122;28;20036;-61
2022/09/01 07:15:18;;;;;;;17.80;5.00;;;;;;;15.33;83.18;101905.88;5031089;28;20029;-60
2022/09/01 07:17:53;;;;;;;15.93;5.07;;;;;;;15.46;82.64;101906.78;5033628;28;20113;-60
2022/09/01 07:20:20;;;;;;;18.48;5.05;;;;;;;15.54;81.73;101899.69;5032572;28;20040;-61
2022/09/01 07:22:50;;;;;;;19.08;5.20;;;;;;;15.66;80.94;101897.00;5036664;28;20533;-61
2022/09/01 07:25:16;;;;;;;16.08;5.15;;;;;;;15.78;81.00;101900.56;5036699;28;20022;-61
2022/09/01 07:27:49;;;;;;;16.65;5.13;;;;;;;15.87;81.03;101903.25;5036069;28;20030;-60
2022/09/01 07:30:20;;;;;;;18.05;5.10;;;;;;;15.99;79.46;101900.59;5036905;28;20468;-60
2022/09/01 07:32:47;;;;;;;15.70;4.90;;;;;;;16.11;80.51;101907.69;5038410;28;20465;-60
2022/09/01 07:35:15;;;;;;;18.85;4.90;;;;;;;16.27;79.23;101899.66;5033195;28;20033;-60
2022/09/01 07:37:41;;;;;;;16.65;4.70;;;;;;;16.42;77.88;101904.06;5035899;28;20036;-60
2022/09/01 07:40:12;;;;;;;17.17;4.68;;;;;;;16.53;75.26;101895.13;5034848;28;20022;-60
2022/09/01 07:42:39;;;;;;;16.02;4.57;;;;;;;16.60;73.80;101906.66;5040631;28;20029;-60
2022/09/01 07:45:10;;;;;;;16.65;4.47;;;;;;;16.62;73.45;101904.88;5037729;28;20470;-64
2022/09/01 07:47:35;;;;;;;15.07;4.50;;;;;;;16.62;72.81;101906.66;5038619;28;20373;-62
2022/09/01 07:50:07;;;;;;;15.23;4.80;;;;;;;16.63;73.02;101912.00;5037134;28;20036;-62
2022/09/01 07:52:41;;;;;;;15.48;4.53;;;;;;;16.70;73.10;101911.06;5037071;28;20116;-62
2022/09/01 07:55:14;;;;;;;13.88;4.60;;;;;;;16.80;71.83;101911.91;5038040;28;20060;-66
2022/09/01 07:57:41;;;;;;;17.85;4.80;;;;;;;16.89;72.42;101916.34;5045953;28;20451;-65
2022/09/01 08:00:10;;;;;;;15.52;4.90;;;;;;;17.10;71.69;101914.47;5044131;28;20021;-64
2022/09/01 08:02:37;;;;;;;15.32;4.70;;;;;;;17.29;70.62;101905.44;5045315;28;20397;-62
2022/09/01 08:05:08;;;;;;;16.08;4.70;;;;;;;17.53;70.30;101908.81;5044713;28;20430;-66
2022/09/01 08:07:36;;;;;;;15.50;4.72;;;;;;;17.68;68.84;101913.13;5045123;28;20049;-64
2022/09/01 08:10:04;;;;;;;19.17;4.80;;;;;;;17.83;68.40;101907.69;5044508;28;20542;-67
2022/09/01 08:12:29;;;;;;;19.77;4.60;;;;;;;18.14;66.57;101901.19;5044208;28;20026;-68
2022/09/01 08:14:55;;;;;;;17.30;4.97;;;;;;;18.66;65.12;101905.06;5045475;28;20480;-66
2022/09/01 08:17:20;;;;;;;19.40;4.80;;;;;;;18.80;63.55;101903.09;5042984;28;20031;-65
2022/09/01 08:19:46;;;;;;;13.80;4.70;;;;;;;18.71;63.87;101909.44;5046508;28;20435;-68
2022/09/01 08:22:13;;;;;;;18.02;4.90;;;;;;;18.76;63.99;101915.63;5043141;28;20034;-66
2022/09/01 08:24:38;;;;;;;17.35;4.80;;;;;;;18.76;63.93;101910.25;5045149;28;20101;-67
2022/09/01 08:27:03;;;;;;;17.65;4.80;;;;;;;18.92;64.47;101912.78;5044318;28;20112;-63
2022/09/01 08:29:29;;;;;;;16.83;5.30;;;;;;;19.10;62.54;101915.19;5044020;28;20053;-66
2022/09/01 08:31:54;;;;;;;21.50;5.10;;;;;;;19.11;61.67;101900.88;5044647;28;20487;-63
2022/09/01 08:34:20;;;;;;;18.20;4.88;;;;;;;19.13;62.31;101907.13;5042126;28;20057;-66
2022/09/01 08:36:45;;;;;;;17.52;4.65;;;;;;;19.26;62.06;101909.59;5045821;28;20460;-63
2022/09/01 08:39:10;;;;;;;21.15;4.80;;;;;;;19.48;61.77;101904.78;5043444;28;20032;-61
2022/09/01 08:41:58;;;;;;;17.17;4.82;;;;;;;19.69;60.01;101909.81;5043300;28;20025;-66
2022/09/01 08:44:36;;;;;;;15.48;4.55;;;;;;;20.58;57.55;101911.78;5039943;28;20041;-64
2022/09/01 08:47:09;;;;;;;17.08;4.50;;;;;;;21.53;52.69;101914.16;5044273;28;20052;-63
2022/09/01 08:49:38;;;;;;;15.90;4.30;;;;;;;22.20;50.00;101907.94;5044500;28;20025;-68
2022/09/01 08:52:32;;;;;;;15.07;4.35;;;;;;;22.53;49.88;101909.75;5043795;28;20459;-69
2022/09/01 08:55:15;;;;;;;19.67;4.65;;;;;;;22.89;47.11;101913.19;5039821;28;20092;-69
2022/09/01 08:57:44;;;;;;;16.67;4.45;;;;;;;23.15;46.45;101911.50;5042918;28;20034;-69
2022/09/01 09:00:13;;;;;;;15.85;4.47;;;;;;;23.45;45.45;101906.06;5044698;28;20017;-63
2022/09/01 09:02:49;;;;;;;14.88;4.10;;;;;;;24.07;44.01;101899.50;5042770;28;20028;-66
2022/09/01 09:05:32;;;;;;;26.35;5.00;;;;;;;24.33;43.15;101906.66;5037804;28;20024;-62
2022/09/01 09:08:04;;;;;;;;;;;;;;;24.55;43.95;101905.81;5039701;28;20034;-62
2022/09/01 09:11:05;;;;;;;11.70;3.90;;;;;;;24.99;43.38;101895.16;5043835;28;20015;-61
2022/09/01 09:13:37;;;;;;;14.43;3.70;;;;;;;25.76;40.36;101899.22;5021067;28;20037;-65
2022/09/01 09:16:10;;;;;;;13.57;3.72;;;;;;;26.12;38.72;101897.72;5021373;28;20424;-67
2022/09/01 09:18:59;;;;;;;16.70;3.50;;;;;;;26.35;39.34;101900.28;5022055;28;20477;-67
2022/09/01 09:21:40;;;;;;;17.00;4.10;;;;;;;26.69;37.93;101901.44;5020269;28;20026;-62
2022/09/01 09:24:11;;;;;;;19.73;3.70;;;;;;;26.51;36.76;101886.03;5021050;28;20037;-66
2022/09/01 09:26:37;;;;;;;13.00;3.63;;;;;;;25.72;37.63;101887.66;5018431;28;20033;-64
2022/09/01 09:29:02;;;;;;;15.05;4.00;;;;;;;25.04;39.21;101886.84;5020727;28;20034;-64
2022/09/01 09:31:35;;;;;;;13.60;3.55;;;;;;;24.62;40.19;101893.00;5021417;28;20040;-66
2022/09/01 09:34:01;;;;;;;15.48;3.90;;;;;;;24.36;40.53;101882.22;5020375;28;20026;-63
2022/09/01 09:36:35;;;;;;;14.32;3.65;;;;;;;24.44;41.03;101883.75;5021548;28;20456;-64
2022/09/01 09:39:17;;;;;;;17.10;3.55;;;;;;;24.96;40.15;101873.66;5020550;28;20413;-62
2022/09/01 09:41:46;;;;;;;;;;;;;;;25.21;41.03;101878.06;5020170;28;20081;-63
2022/09/01 09:44:24;;;;;;;22.73;3.88;;;;;;;26.04;37.29;101866.44;5021776;28;20008;-61
2022/09/01 09:46:50;;;;;;;13.55;3.30;;;;;;;26.81;34.97;101870.19;5015768;28;20029;-60
2022/09/01 09:49:22;;;;;;;13.70;3.20;;;;;;;27.26;33.36;101876.13;5023544;28;20552;-63
2022/09/01 09:52:07;;;;;;;10.88;3.30;;;;;;;28.14;33.44;101861.66;5037189;28;20025;-61
2022/09/01 09:54:35;;;;;;;14.70;3.10;;;;;;;28.89;31.08;101865.75;5040431;28;20041;-61
2022/09/01 09:57:10;;;;;;;14.32;3.40;;;;;;;29.10;31.29;101859.09;5043127;28;20116;-61
2022/09/01 09:59:56;;;;;;;11.27;2.92;;;;;;;30.04;31.04;101860.78;5042968;28;20065;-62
2022/09/01 10:02:34;;;;;;;16.55;3.03;;;;;;;30.15;29.36;101854.69;5038199;28;20376;-69
2022/09/01 10:05:20;;;;;;;10.05;2.78;;;;;;;30.43;28.25;101860.16;5043164;28;20107;-70
2022/09/01 10:07:46;;;;;;;14.30;3.03;;;;;;;31.09;26.89;101865.03;5044123;28;20496;-72
2022/09/01 10:10:28;;;;;;;7.85;2.60;;;;;;;31.65;27.47;101850.41;5041596;28;20022;-72
2022/09/01 10:12:54;;;;;;;12.20;2.80;;;;;;;31.29;26.17;101863.69;5037838;28;20104;-70
2022/09/01 10:15:31;;;;;;;12.18;2.55;;;;;;;31.03;24.50;101855.41;5044303;28;20029;-71
2022/09/01 10:18:13;;;;;;;11.90;2.40;;;;;;;30.93;25.62;101855.13;5038846;28;20033;-72
2022/09/01 10:20:40;;;;;;;19.83;2.60;;;;;;;30.67;25.46;101845.03;5041691;28;20029;-72
2022/09/01 10:23:06;;;;;;;14.77;2.60;;;;;;;31.00;24.95;101843.81;5042497;28;20477;-72
2022/09/01 10:25:34;;;;;;;13.15;2.72;;;;;;;30.48;25.05;101846.25;5043140;28;20048;-72
2022/09/01 10:28:13;;;;;;;25.58;3.00;;;;;;;30.30;25.98;101839.22;5042268;28;20032;-73
2022/09/01 10:30:42;;;;;;;25.08;3.03;;;;;;;30.97;24.54;101844.88;5041647;28;20138;-72
2022/09/01 10:33:08;;;;;;;10.07;2.40;;;;;;;31.38;23.99;101846.72;5042927;28;20025;-71
2022/09/01 10:35:36;;;;;;;15.85;2.83;;;;;;;31.99;22.92;101840.69;5042605;28;20033;-70
2022/09/01 10:38:08;;;;;;;7.00;2.40;;;;;;;31.95;23.72;101831.84;5041998;28;20025;-71
2022/09/01 10:40:39;;;;;;;10.40;2.58;;;;;;;31.90;23.38;101836.75;5042586;28;20111;-68
2022/09/01 10:43:26;;;;;;;11.70;2.72;;;;;;;32.03;23.72;101841.38;5042215;28;20468;-70
2022/09/01 10:45:52;;;;;;;11.45;2.40;;;;;;;32.77;23.06;101831.44;5036709;28;20559;-67
2022/09/01 10:48:20;;;;;;;8.25;2.20;;;;;;;33.62;22.12;101846.06;5036835;28;20025;-66
2022/09/01 10:50:51;;;;;;;23.38;3.17;;;;;;;33.50;21.67;101846.03;5043665;28;20028;-65
2022/09/01 10:53:32;;;;;;;5.20;2.30;;;;;;;33.53;21.89;101840.28;5036322;28;20065;-66
2022/09/01 10:56:18;;;;;;;13.55;2.30;;;;;;;33.95;22.46;101837.06;5039709;28;20041;-62
2022/09/01 10:58:50;;;;;;;17.25;2.50;;;;;;;34.03;20.69;101848.31;5043391;28;20469;-67
2022/09/01 11:01:15;;;;;;;10.07;2.40;;;;;;;34.19;20.22;101833.34;5047832;28;20033;-63
2022/09/01 11:03:54;;;;;;;5.22;2.30;;;;;;;34.12;20.70;101838.47;5045283;28;20025;-65
2022/09/01 11:06:41;;;;;;;22.13;2.95;;;;;;;34.09;21.01;101838.69;5040408;28;20025;-65
2022/09/01 11:09:32;;;;;;;8.15;2.22;;;;;;;34.61;20.83;101833.59;5044391;28;20086;-64
2022/09/01 11:12:16;;;;;;;5.57;2.30;;;;;;;34.34;20.56;101832.16;5042087;28;20030;-67
2022/09/01 11:15:00;;;;;;;6.78;2.20;;;;;;;34.64;20.21;101836.09;5044910;28;20033;-64
2022/09/01 11:17:29;;;;;;;9.95;2.40;;;;;;;35.26;19.77;101844.69;5041459;28;20030;-65
2022/09/01 11:20:29;;;;;;;7.47;2.40;;;;;;;34.31;19.02;101837.00;5047077;28;20055;-65
2022/09/01 11:23:00;;;;;;;18.17;2.80;;;;;;;32.62;21.71;101818.88;5019291;28;20429;-67
2022/09/01 11:25:48;;;;;;;19.02;3.00;;;;;;;33.46;21.88;101825.31;5024726;28;20125;-67
2022/09/01 11:28:14;;;;;;;9.35;2.80;;;;;;;34.64;19.79;101827.00;5024714;28;20061;-65
2022/09/01 11:30:51;;;;;;;9.40;2.30;;;;;;;35.16;19.41;101819.03;5022947;28;20190;-67
2022/09/01 11:33:38;;;;;;;20.40;3.00;;;;;;;35.52;18.71;101816.84;5025217;28;20500;-68
2022/09/01 11:36:10;;;;;;;10.50;2.40;;;;;;;34.83;19.52;101818.97;5023192;28;20026;-62
2022/09/01 11:38:50;;;;;;;;;;;;;;;36.41;18.79;101811.75;5023697;28;20535;-67